createdAt,value
2019-02-25T00:01:30.738Z,13.10
2019-02-25T00:03:57.745Z,13.10
2019-02-25T00:06:24.568Z,12.90
2019-02-25T00:08:51.916Z,12.90
2019-02-25T00:11:19.272Z,12.90
2019-02-25T00:13:46.523Z,12.90
2019-02-25T00:16:13.315Z,12.70
2019-02-25T00:18:41.012Z,12.60
2019-02-25T00:21:08.545Z,12.70
2019-02-25T00:23:35.536Z,12.60
2019-02-25T00:26:02.380Z,12.90
2019-02-25T00:28:29.097Z,12.60
2019-02-25T00:30:56.263Z,12.70
2019-02-25T00:33:23.937Z,12.70
2019-02-25T00:35:52.001Z,12.80
2019-02-25T00:38:18.727Z,12.80
2019-02-25T00:40:45.705Z,12.90
2019-02-25T00:43:13.752Z,12.80
2019-02-25T00:45:41.418Z,12.80
2019-02-25T00:48:09.432Z,13.00
2019-02-25T00:50:37.304Z,12.90
2019-02-25T00:53:04.551Z,12.90
2019-02-25T00:55:31.945Z,13.10
2019-02-25T00:57:59.309Z,13.00
2019-02-25T01:00:26.568Z,12.80
2019-02-25T01:02:54.259Z,13.00
2019-02-25T01:05:21.766Z,12.90
2019-02-25T01:07:49.532Z,12.80
2019-02-25T01:10:16.682Z,12.90
2019-02-25T01:12:44.752Z,12.80
2019-02-25T01:15:12.001Z,12.80
2019-02-25T01:17:38.749Z,12.80
2019-02-25T01:20:05.484Z,12.80
2019-02-25T01:22:32.221Z,12.90
2019-02-25T01:24:59.351Z,12.80
2019-02-25T01:27:26.114Z,13.00
2019-02-25T01:29:52.864Z,13.00
2019-02-25T01:32:19.586Z,13.10
2019-02-25T01:34:46.595Z,13.40
2019-02-25T01:37:13.539Z,13.40
2019-02-25T01:39:40.330Z,13.50
2019-02-25T01:42:07.206Z,13.60
2019-02-25T01:44:33.908Z,13.60
2019-02-25T01:47:00.750Z,13.80
2019-02-25T01:49:27.589Z,13.90
2019-02-25T01:51:54.439Z,14.00
2019-02-25T01:54:21.130Z,14.20
2019-02-25T01:56:47.920Z,14.10
2019-02-25T01:59:14.647Z,14.10
2019-02-25T02:01:41.498Z,14.20
2019-02-25T02:04:08.321Z,14.50
2019-02-25T02:06:34.970Z,14.40
2019-02-25T02:09:01.699Z,14.40
2019-02-25T02:11:28.437Z,14.40
2019-02-25T02:13:55.263Z,14.30
2019-02-25T02:16:22.038Z,14.10
2019-02-25T02:18:48.929Z,14.20
2019-02-25T02:21:15.715Z,14.20
2019-02-25T02:23:42.561Z,13.90
2019-02-25T02:26:09.450Z,14.10
2019-02-25T02:28:36.247Z,14.20
2019-02-25T02:31:02.969Z,14.20
2019-02-25T02:33:29.680Z,14.10
2019-02-25T02:35:56.458Z,13.90
2019-02-25T02:38:23.298Z,13.90
2019-02-25T02:40:50.035Z,14.00
2019-02-25T02:43:16.881Z,14.10
2019-02-25T02:45:43.721Z,13.90
2019-02-25T02:48:10.427Z,13.90
2019-02-25T02:50:37.192Z,13.70
2019-02-25T02:53:04.052Z,13.80
2019-02-25T02:55:30.891Z,14.10
2019-02-25T02:57:57.784Z,14.00
2019-02-25T03:00:24.543Z,14.00
2019-02-25T03:02:51.409Z,14.00
2019-02-25T03:05:18.249Z,14.00
2019-02-25T03:07:44.981Z,14.00
2019-02-25T03:10:11.689Z,14.00
2019-02-25T03:12:38.470Z,13.90
2019-02-25T03:15:05.301Z,14.00
2019-02-25T03:17:32.041Z,13.90
2019-02-25T03:19:58.747Z,14.20
2019-02-25T03:22:25.517Z,14.00
2019-02-25T03:24:52.266Z,13.90
2019-02-25T03:27:19.096Z,14.20
2019-02-25T03:29:45.951Z,13.90
2019-02-25T03:32:12.682Z,14.00
2019-02-25T03:34:39.423Z,14.00
2019-02-25T03:37:06.157Z,14.00
2019-02-25T03:39:33.009Z,14.00
2019-02-25T03:41:59.705Z,14.20
2019-02-25T03:44:26.491Z,14.30
2019-02-25T03:46:53.354Z,14.90
2019-02-25T03:49:20.059Z,14.90
2019-02-25T03:51:46.807Z,14.60
2019-02-25T03:54:13.542Z,14.80
2019-02-25T03:56:40.390Z,14.80
2019-02-25T03:59:07.125Z,14.90
2019-02-25T04:01:33.854Z,14.80
2019-02-25T04:04:00.702Z,15.30
2019-02-25T04:06:27.449Z,15.30
2019-02-25T04:08:54.189Z,15.40
2019-02-25T04:11:20.881Z,15.70
2019-02-25T04:13:47.550Z,15.50
2019-02-25T04:16:14.509Z,15.50
2019-02-25T04:18:41.351Z,15.80
2019-02-25T04:21:08.269Z,15.80
2019-02-25T04:23:35.040Z,15.80
2019-02-25T04:26:01.791Z,15.60
2019-02-25T04:28:28.608Z,15.70
2019-02-25T04:30:55.464Z,15.70
2019-02-25T04:33:22.160Z,15.60
2019-02-25T04:35:48.927Z,15.70
2019-02-25T04:38:15.670Z,15.70
2019-02-25T04:40:42.516Z,15.90
2019-02-25T04:43:09.242Z,15.70
2019-02-25T04:45:36.002Z,15.60
2019-02-25T04:48:02.724Z,15.50
2019-02-25T04:50:29.481Z,15.50
2019-02-25T04:52:56.311Z,15.60
2019-02-25T04:55:23.055Z,15.60
2019-02-25T04:57:49.795Z,15.50
2019-02-25T05:00:16.638Z,15.40
2019-02-25T05:02:43.491Z,15.50
2019-02-25T05:05:10.320Z,15.60
2019-02-25T05:07:37.165Z,15.70
2019-02-25T05:10:03.999Z,15.80
2019-02-25T05:12:30.851Z,15.80
2019-02-25T05:14:57.572Z,16.00
2019-02-25T05:17:24.393Z,15.80
2019-02-25T05:19:51.157Z,15.70
2019-02-25T05:22:17.999Z,15.50
2019-02-25T05:24:44.743Z,15.70
2019-02-25T05:27:11.472Z,15.70
2019-02-25T05:29:38.287Z,15.60
2019-02-25T05:32:05.075Z,15.60
2019-02-25T05:34:31.906Z,15.50
2019-02-25T05:36:58.751Z,15.60
2019-02-25T05:39:25.592Z,15.50
2019-02-25T05:41:52.428Z,15.60
2019-02-25T05:44:19.159Z,15.60
2019-02-25T05:46:45.808Z,15.70
2019-02-25T05:49:12.533Z,16.10
2019-02-25T05:51:39.276Z,15.70
2019-02-25T05:54:06.035Z,15.50
2019-02-25T05:56:32.879Z,15.40
2019-02-25T05:58:59.717Z,15.70
2019-02-25T06:01:26.548Z,15.70
2019-02-25T06:03:53.448Z,15.60
2019-02-25T06:06:20.335Z,15.50
2019-02-25T06:08:47.175Z,15.60
2019-02-25T06:11:13.919Z,15.90
2019-02-25T06:13:40.649Z,16.00
2019-02-25T06:16:07.350Z,16.10
2019-02-25T06:18:34.241Z,16.00
2019-02-25T06:21:00.990Z,16.00
2019-02-25T06:23:27.713Z,16.00
2019-02-25T06:25:54.555Z,15.70
2019-02-25T06:28:21.283Z,15.60
2019-02-25T06:30:48.037Z,15.40
2019-02-25T06:33:14.875Z,15.30
2019-02-25T06:35:41.614Z,15.30
2019-02-25T06:38:08.390Z,15.30
2019-02-25T06:40:35.196Z,15.00
2019-02-25T06:43:02.047Z,14.90
2019-02-25T06:45:30.879Z,14.90
2019-02-25T06:47:57.221Z,15.00
2019-02-25T06:50:24.195Z,14.90
2019-02-25T06:52:50.940Z,14.80
2019-02-25T06:55:17.701Z,14.70
2019-02-25T06:57:44.532Z,14.40
2019-02-25T07:00:11.567Z,14.30
2019-02-25T07:02:38.417Z,14.10
2019-02-25T07:05:05.250Z,13.90
2019-02-25T07:07:32.401Z,13.40
2019-02-25T07:09:59.232Z,13.30
2019-02-25T07:12:25.934Z,13.60
2019-02-25T07:14:52.624Z,13.90
2019-02-25T07:17:19.476Z,13.60
2019-02-25T07:19:46.306Z,13.80
2019-02-25T07:22:13.141Z,14.00
2019-02-25T07:24:40.027Z,14.00
2019-02-25T07:27:06.827Z,13.70
2019-02-25T07:29:33.668Z,13.80
2019-02-25T07:32:00.714Z,14.10
2019-02-25T07:34:27.450Z,13.60
2019-02-25T07:36:54.387Z,13.80
2019-02-25T07:39:21.130Z,14.00
2019-02-25T07:41:48.079Z,14.20
2019-02-25T07:44:14.923Z,13.90
2019-02-25T07:46:41.670Z,13.50
2019-02-25T07:49:08.404Z,13.60
2019-02-25T07:51:35.140Z,13.50
2019-02-25T07:54:01.876Z,13.50
2019-02-25T07:56:28.615Z,13.30
2019-02-25T07:58:55.352Z,13.10
2019-02-25T08:01:22.096Z,13.40
2019-02-25T08:03:49.041Z,13.30
2019-02-25T08:06:15.820Z,13.10
2019-02-25T08:08:42.622Z,13.30
2019-02-25T08:11:09.370Z,13.10
2019-02-25T08:13:36.221Z,13.10
2019-02-25T08:16:02.908Z,12.80
2019-02-25T08:18:29.675Z,12.80
2019-02-25T08:20:56.425Z,12.90
2019-02-25T08:23:23.267Z,12.90
2019-02-25T08:25:51.980Z,12.90
2019-02-25T08:28:18.687Z,12.60
2019-02-25T08:30:45.646Z,12.60
2019-02-25T08:33:12.370Z,12.60
2019-02-25T08:35:39.216Z,12.20
2019-02-25T08:38:05.946Z,12.40
2019-02-25T08:40:32.801Z,12.00
2019-02-25T08:42:59.645Z,12.10
2019-02-25T08:45:26.482Z,11.50
2019-02-25T08:47:53.408Z,11.00
2019-02-25T08:50:20.086Z,11.10
2019-02-25T08:52:46.955Z,10.90
2019-02-25T08:55:13.730Z,11.10
2019-02-25T08:57:40.457Z,10.90
2019-02-25T09:00:07.251Z,10.90
2019-02-25T09:02:33.948Z,10.90
2019-02-25T09:05:00.613Z,10.60
2019-02-25T09:07:27.445Z,10.80
2019-02-25T09:09:54.283Z,10.90
2019-02-25T09:12:21.010Z,10.60
2019-02-25T09:14:47.766Z,10.70
2019-02-25T09:17:16.074Z,10.70
2019-02-25T09:19:42.967Z,10.30
2019-02-25T09:22:09.810Z,10.20
2019-02-25T09:24:36.554Z,10.30
2019-02-25T09:27:03.285Z,10.60
2019-02-25T09:29:30.037Z,10.30
2019-02-25T09:31:56.764Z,10.00
2019-02-25T09:34:23.617Z,10.00
2019-02-25T09:36:50.458Z,10.30
2019-02-25T09:39:17.193Z,10.60
2019-02-25T09:41:43.890Z,10.20
2019-02-25T09:44:10.685Z,9.80
2019-02-25T09:46:37.745Z,9.90
2019-02-25T09:49:04.570Z,10.00
2019-02-25T09:51:31.437Z,10.40
2019-02-25T09:53:58.248Z,10.00
2019-02-25T09:56:25.090Z,10.30
2019-02-25T09:58:52.069Z,10.10
2019-02-25T10:01:19.080Z,9.80
2019-02-25T10:03:45.810Z,9.50
2019-02-25T10:06:13.041Z,9.50
2019-02-25T10:08:40.618Z,8.90
2019-02-25T10:11:08.191Z,8.70
2019-02-25T10:13:34.932Z,8.70
2019-02-25T10:16:03.064Z,8.90
2019-02-25T10:18:30.162Z,8.20
2019-02-25T10:20:57.046Z,8.10
2019-02-25T10:23:23.820Z,8.00
2019-02-25T10:25:50.560Z,8.00
2019-02-25T10:28:17.408Z,7.90
2019-02-25T10:30:52.536Z,7.60
2019-02-25T10:33:12.470Z,7.60
2019-02-25T10:35:39.330Z,7.50
2019-02-25T10:38:06.107Z,7.40
2019-02-25T10:40:32.835Z,7.10
2019-02-25T10:42:59.589Z,7.10
2019-02-25T10:45:26.325Z,6.80
2019-02-25T10:47:58.332Z,6.60
2019-02-25T10:50:21.533Z,6.50
2019-02-25T10:52:49.480Z,6.10
2019-02-25T10:55:16.549Z,5.70
2019-02-25T10:57:43.309Z,5.50
2019-02-25T11:00:11.644Z,5.60
2019-02-25T11:02:44.252Z,5.20
2019-02-25T11:05:07.191Z,5.20
2019-02-25T11:07:34.907Z,5.20
2019-02-25T11:10:02.719Z,5.40
2019-02-25T11:12:30.430Z,5.70
2019-02-25T11:14:58.254Z,6.20
2019-02-25T11:17:24.994Z,6.60
2019-02-25T11:19:51.723Z,6.80
2019-02-25T11:22:18.463Z,6.90
2019-02-25T11:24:46.832Z,7.10
2019-02-25T11:27:13.785Z,7.10
2019-02-25T11:29:42.139Z,7.50
2019-02-25T11:32:08.940Z,7.60
2019-02-25T11:34:37.585Z,7.70
2019-02-25T11:37:04.178Z,8.10
2019-02-25T11:39:32.699Z,8.10
2019-02-25T11:41:59.444Z,8.10
2019-02-25T11:44:30.918Z,8.00
2019-02-25T11:46:54.673Z,8.20
2019-02-25T11:49:21.435Z,8.30
2019-02-25T11:51:48.256Z,8.40
2019-02-25T11:54:14.983Z,8.50
2019-02-25T11:56:41.725Z,8.30
2019-02-25T11:59:08.512Z,8.10
2019-02-25T12:01:35.413Z,8.20
2019-02-25T12:04:02.144Z,8.10
2019-02-25T12:06:28.913Z,7.90
2019-02-25T12:08:55.729Z,7.90
2019-02-25T12:11:22.461Z,8.10
2019-02-25T12:13:49.214Z,8.20
2019-02-25T12:16:15.942Z,8.10
2019-02-25T12:18:42.708Z,8.20
2019-02-25T12:21:09.453Z,8.60
2019-02-25T12:23:36.279Z,8.10
2019-02-25T12:26:03.124Z,8.20
2019-02-25T12:28:29.961Z,7.90
2019-02-25T12:30:56.811Z,8.30
2019-02-25T12:33:23.547Z,8.30
2019-02-25T12:35:50.380Z,8.80
2019-02-25T12:38:17.215Z,9.30
2019-02-25T12:40:43.932Z,10.20
2019-02-25T12:43:10.753Z,10.00
2019-02-25T12:45:37.536Z,10.50
2019-02-25T12:48:04.416Z,10.80
2019-02-25T12:50:31.232Z,11.10
2019-02-25T12:52:58.072Z,11.40
2019-02-25T12:55:24.812Z,11.50
2019-02-25T12:57:51.643Z,11.50
2019-02-25T13:00:18.489Z,11.80
2019-02-25T13:02:45.336Z,12.10
2019-02-25T13:05:12.084Z,11.90
2019-02-25T13:07:38.903Z,12.20
2019-02-25T13:10:05.654Z,12.30
2019-02-25T13:12:32.501Z,12.60
2019-02-25T13:14:59.372Z,13.10
2019-02-25T13:17:26.179Z,13.40
2019-02-25T13:19:53.028Z,13.70
2019-02-25T13:22:19.753Z,13.90
2019-02-25T13:24:46.599Z,14.10
2019-02-25T13:27:13.870Z,14.40
2019-02-25T13:29:40.741Z,14.50
2019-02-25T13:32:07.543Z,14.20
2019-02-25T13:34:34.375Z,13.90
2019-02-25T13:37:01.317Z,14.20
2019-02-25T13:39:28.078Z,14.10
2019-02-25T13:41:55.093Z,13.90
2019-02-25T13:44:21.803Z,14.00
2019-02-25T13:46:48.584Z,13.80
2019-02-25T13:49:15.531Z,13.50
2019-02-25T13:51:42.477Z,13.20
2019-02-25T13:54:09.506Z,12.90
2019-02-25T13:56:36.470Z,12.60
2019-02-25T13:59:03.617Z,12.60
2019-02-25T14:01:30.657Z,12.40
2019-02-25T14:03:58.101Z,11.60
2019-02-25T14:06:24.931Z,11.60
2019-02-25T14:08:51.686Z,11.20
2019-02-25T14:11:18.590Z,10.90
2019-02-25T14:13:45.385Z,11.00
2019-02-25T14:16:12.829Z,10.80
2019-02-25T14:18:39.575Z,10.90
2019-02-25T14:21:06.571Z,11.10
2019-02-25T14:23:33.364Z,11.00
2019-02-25T14:26:00.194Z,11.00
2019-02-25T14:28:27.050Z,11.30
2019-02-25T14:30:54.178Z,12.00
2019-02-25T14:33:23.421Z,12.30
2019-02-25T14:35:50.346Z,12.70
2019-02-25T14:38:20.215Z,13.10
2019-02-25T14:40:47.136Z,14.00
2019-02-25T14:43:15.672Z,13.80
2019-02-25T14:45:46.173Z,14.00
2019-02-25T14:48:15.432Z,14.20
2019-02-25T14:50:40.126Z,14.50
2019-02-25T14:53:09.180Z,14.60
2019-02-25T14:55:35.609Z,14.70
2019-02-25T14:58:04.797Z,15.10
2019-02-25T15:00:32.704Z,15.40
2019-02-25T15:02:59.808Z,15.50
2019-02-25T15:05:26.654Z,15.50
2019-02-25T15:07:53.531Z,15.70
2019-02-25T15:10:20.309Z,15.90
2019-02-25T15:12:47.114Z,15.80
2019-02-25T15:15:14.086Z,15.80
2019-02-25T15:17:42.015Z,16.00
2019-02-25T15:20:10.487Z,15.90
2019-02-25T15:22:38.379Z,16.00
2019-02-25T15:25:06.115Z,16.30
2019-02-25T15:27:33.141Z,16.60
2019-02-25T15:29:59.892Z,16.80
2019-02-25T15:32:26.726Z,16.90
2019-02-25T15:34:55.101Z,17.20
2019-02-25T15:37:21.951Z,17.30
2019-02-25T15:39:48.688Z,17.30
2019-02-25T15:42:15.699Z,17.30
2019-02-25T15:44:44.517Z,17.00
2019-02-25T15:47:12.887Z,17.20
2019-02-25T15:49:39.438Z,17.30
2019-02-25T15:52:06.133Z,17.90
2019-02-25T15:54:34.902Z,17.40
2019-02-25T15:57:01.488Z,17.40
2019-02-25T15:59:32.088Z,17.60
2019-02-25T16:01:56.581Z,17.60
2019-02-25T16:04:25.550Z,17.70
2019-02-25T16:06:53.840Z,17.80
2019-02-25T16:09:23.768Z,17.90
2019-02-25T16:11:48.681Z,17.80
2019-02-25T16:14:15.761Z,17.80
2019-02-25T16:16:42.573Z,17.80
2019-02-25T16:19:09.430Z,17.80
2019-02-25T16:21:40.666Z,17.80
2019-02-25T16:24:07.674Z,17.90
2019-02-25T16:26:34.280Z,17.90
2019-02-25T16:29:05.964Z,18.10
2019-02-25T16:31:30.974Z,18.20
2019-02-25T16:33:58.458Z,18.20
2019-02-25T16:36:26.201Z,18.40
2019-02-25T16:38:55.716Z,18.50
2019-02-25T16:41:27.382Z,19.00
2019-02-25T16:43:52.125Z,19.40
2019-02-25T16:46:20.362Z,19.60
2019-02-25T16:48:48.491Z,19.30
2019-02-25T16:51:15.669Z,19.30
2019-02-25T16:53:43.295Z,19.30
2019-02-25T16:56:11.913Z,19.30
2019-02-25T16:58:39.380Z,19.30
2019-02-25T17:01:07.990Z,19.10
2019-02-25T17:03:35.376Z,19.20
2019-02-25T17:06:05.057Z,19.20
2019-02-25T17:08:32.478Z,19.20
2019-02-25T17:11:00.074Z,19.20
2019-02-25T17:13:27.078Z,19.20
2019-02-25T17:15:55.591Z,19.30
2019-02-25T17:18:22.398Z,19.30
2019-02-25T17:20:50.291Z,19.50
2019-02-25T17:23:17.213Z,19.40
2019-02-25T17:25:44.250Z,19.50
2019-02-25T17:28:14.638Z,19.80
2019-02-25T17:30:41.149Z,20.00
2019-02-25T17:33:09.740Z,20.00
2019-02-25T17:35:36.216Z,20.10
2019-02-25T17:38:03.638Z,20.10
2019-02-25T17:40:31.352Z,20.10
2019-02-25T17:42:58.400Z,20.30
2019-02-25T17:45:27.463Z,20.40
2019-02-25T17:47:58.305Z,20.50
2019-02-25T17:50:21.838Z,20.60
2019-02-25T17:52:48.661Z,20.70
2019-02-25T17:55:15.459Z,20.60
2019-02-25T17:57:42.317Z,20.70
2019-02-25T18:00:11.098Z,20.90
2019-02-25T18:02:38.585Z,20.90
2019-02-25T18:05:06.319Z,20.90
2019-02-25T18:07:33.263Z,20.90
2019-02-25T18:10:01.126Z,21.10
2019-02-25T18:12:29.742Z,21.10
2019-02-25T18:14:58.846Z,21.20
2019-02-25T18:17:25.374Z,21.20
2019-02-25T18:19:52.937Z,21.20
2019-02-25T18:22:20.551Z,21.40
2019-02-25T18:24:47.600Z,21.20
2019-02-25T18:27:14.616Z,21.50
2019-02-25T18:29:43.800Z,21.50
2019-02-25T18:32:10.572Z,21.40
2019-02-25T18:34:38.668Z,21.50
2019-02-25T18:37:07.049Z,21.40
2019-02-25T18:39:33.717Z,21.40
2019-02-25T18:42:00.715Z,21.40
2019-02-25T18:44:27.866Z,21.30
2019-02-25T18:46:54.704Z,21.40
2019-02-25T18:49:21.402Z,21.50
2019-02-25T18:51:48.189Z,21.50
2019-02-25T18:54:16.944Z,21.70
2019-02-25T18:56:44.694Z,21.70
2019-02-25T18:59:14.997Z,21.70
2019-02-25T19:01:40.167Z,21.70
2019-02-25T19:04:06.893Z,21.70
2019-02-25T19:06:33.799Z,21.70
2019-02-25T19:09:00.441Z,21.70
2019-02-25T19:11:28.261Z,21.60
2019-02-25T19:13:56.626Z,21.70
2019-02-25T19:16:24.375Z,21.50
2019-02-25T19:18:51.221Z,21.40
2019-02-25T19:21:18.073Z,21.50
2019-02-25T19:23:46.442Z,21.40
2019-02-25T19:26:15.348Z,21.30
2019-02-25T19:28:44.090Z,21.20
2019-02-25T19:31:10.263Z,21.00
2019-02-25T19:33:37.234Z,21.10
2019-02-25T19:36:04.834Z,20.80
2019-02-25T19:38:36.032Z,20.70
2019-02-25T19:41:00.888Z,21.20
2019-02-25T19:43:27.644Z,20.60
2019-02-25T19:45:54.360Z,20.40
2019-02-25T19:48:22.618Z,20.40
2019-02-25T19:50:51.370Z,20.40
2019-02-25T19:53:20.282Z,20.30
2019-02-25T19:55:48.648Z,20.30
2019-02-25T19:58:14.715Z,20.20
2019-02-25T20:00:41.570Z,20.30
2019-02-25T20:03:08.521Z,20.40
2019-02-25T20:05:38.848Z,20.30
2019-02-25T20:08:03.831Z,20.30
2019-02-25T20:10:30.835Z,20.40
2019-02-25T20:12:57.631Z,20.30
2019-02-25T20:15:25.206Z,20.30
2019-02-25T20:17:53.303Z,20.10
2019-02-25T20:20:20.634Z,20.00
2019-02-25T20:22:47.438Z,19.70
2019-02-25T20:25:16.462Z,19.80
2019-02-25T20:27:42.663Z,19.70
2019-02-25T20:30:09.397Z,19.60
2019-02-25T20:32:36.967Z,19.60
2019-02-25T20:35:04.460Z,19.40
2019-02-25T20:37:31.424Z,19.40
2019-02-25T20:40:00.632Z,19.20
2019-02-25T20:42:28.548Z,19.20
2019-02-25T20:44:57.562Z,19.20
2019-02-25T20:47:24.355Z,19.20
2019-02-25T20:49:53.683Z,19.10
2019-02-25T20:52:20.244Z,19.10
2019-02-25T20:54:49.585Z,19.00
2019-02-25T20:57:16.937Z,19.00
2019-02-25T20:59:46.626Z,18.90
2019-02-25T21:02:16.127Z,18.80
2019-02-25T21:04:43.906Z,18.80
2019-02-25T21:07:11.481Z,18.80
2019-02-25T21:09:40.382Z,18.70
2019-02-25T21:12:08.164Z,18.70
2019-02-25T21:14:37.884Z,18.80
2019-02-25T21:17:04.262Z,18.90
2019-02-25T21:19:31.011Z,18.90
2019-02-25T21:21:59.633Z,18.90
2019-02-25T21:24:26.924Z,18.90
2019-02-25T21:26:57.436Z,18.90
2019-02-25T21:29:26.904Z,18.90
2019-02-25T21:31:54.167Z,18.90
2019-02-25T21:34:23.801Z,18.90
2019-02-25T21:36:49.562Z,18.90
2019-02-25T21:39:19.018Z,19.00
2019-02-25T21:41:46.053Z,18.90
2019-02-25T21:44:16.645Z,19.00
2019-02-25T21:46:43.796Z,19.00
2019-02-25T21:49:12.745Z,19.00
2019-02-25T21:51:43.658Z,19.00
2019-02-25T21:54:10.348Z,19.10
2019-02-25T21:56:37.323Z,19.20
2019-02-25T21:59:06.070Z,19.30
2019-02-25T22:01:34.412Z,19.20
2019-02-25T22:04:01.133Z,19.30
2019-02-25T22:06:29.567Z,19.20
2019-02-25T22:08:58.552Z,19.30
2019-02-25T22:11:25.538Z,19.20
2019-02-25T22:13:52.347Z,19.30
2019-02-25T22:16:19.193Z,19.40
2019-02-25T22:18:47.737Z,19.50
2019-02-25T22:21:16.592Z,19.40
2019-02-25T22:23:42.797Z,19.30
2019-02-25T22:26:09.531Z,19.30
2019-02-25T22:28:37.628Z,19.50
2019-02-25T22:31:07.906Z,19.40
2019-02-25T22:33:33.231Z,19.60
2019-02-25T22:36:00.389Z,19.60
2019-02-25T22:38:27.227Z,19.50
2019-02-25T22:40:55.932Z,19.50
2019-02-25T22:43:22.744Z,19.50
2019-02-25T22:45:49.583Z,19.60
2019-02-25T22:48:18.604Z,19.60
2019-02-25T22:50:44.906Z,19.60
2019-02-25T22:53:11.810Z,19.70
2019-02-25T22:55:41.795Z,19.50
2019-02-25T22:58:08.842Z,19.50
2019-02-25T23:00:35.643Z,19.60
2019-02-25T23:03:02.383Z,19.50
2019-02-25T23:05:29.087Z,19.40
2019-02-25T23:07:55.876Z,19.40
2019-02-25T23:10:24.170Z,19.30
2019-02-25T23:12:51.289Z,19.30
2019-02-25T23:15:18.657Z,19.50
2019-02-25T23:17:46.524Z,19.50
2019-02-25T23:20:13.353Z,19.60
2019-02-25T23:22:40.193Z,19.70
2019-02-25T23:25:07.039Z,19.70
2019-02-25T23:27:34.498Z,19.80
2019-02-25T23:30:02.143Z,19.80
2019-02-25T23:32:28.994Z,19.80
2019-02-25T23:34:55.751Z,20.00
2019-02-25T23:37:24.160Z,20.10
2019-02-25T23:39:51.059Z,20.20
2019-02-25T23:42:18.107Z,20.10
2019-02-25T23:44:45.004Z,20.60
2019-02-25T23:47:11.689Z,20.10
2019-02-25T23:49:39.061Z,20.70
2019-02-25T23:52:07.014Z,20.40
2019-02-25T23:54:33.747Z,20.60
2019-02-25T23:57:02.024Z,20.60
2019-02-25T23:59:28.819Z,20.50
